Kennicott — WCY2920 — position and weather

sailwx.info

Track history (hours):
 
Tides and Currents Weather Stations Pressure Air Temp Water Temp Dewpoint Dewpoint Depression Visibility Wind Speed Wind Dir Waves Ship Positions

Kennicott

Owner: ALASKA, STATE OF, Anchorage, AK. More information available from US FCC via Universal Licensing System and Coast Guard Vessel Documentation Center.

Last reported at 2019-Oct-07 11:04 UTC. Time now 2019-Dec-15 11:03 UTC.
Position N 54°51' W 131°00'.
Warning: this ship's position is months out of date.

Type: Passenger vessel. MMSI: 368250000.

Date/timePositionNaut miles runAvg speedWind from/ knotsBaromVisibWave heightAir tempDewpointWater temp
2019-Oct-07 11:04N 54°51' W 131°00'315.3
2019-Oct-07 10:51N 54°48' W 130°58'515.1
2019-Oct-07 10:30N 54°44' W 130°53'815.1
2019-Oct-07 10:00N 54°39' W 130°42'815.5
2019-Oct-07 09:30N 54°32' W 130°39'815.7
2019-Oct-07 09:00N 54°24' W 130°37'815.3
2019-Oct-07 08:30N 54°16' W 130°33'815.6
2019-Oct-07 08:00N 54°10' W 130°26'713.1
2019-Oct-07 07:30N 54°05' W 130°18'815.6
2019-Oct-07 07:00N 53°58' W 130°12'714.3
2019-Oct-07 06:30N 53°53' W 130°04'815.5
2019-Oct-07 06:00N 53°47' W 129°56'815.6
2019-Oct-07 05:30N 53°41' W 129°47'7214.6
2019-Oct-07 00:33N 52°43' W 128°33'116.5
2019-Oct-07 00:30N 52°43' W 128°34'815.8
2019-Oct-07 00:00N 52°35' W 128°29'816.4
2019-Oct-06 23:30N 52°27' W 128°28'815.1
2019-Oct-06 23:00N 52°20' W 128°31'815.8
2019-Oct-06 22:30N 52°15' W 128°21'816.8
2019-Oct-06 22:00N 52°12' W 128°08'4 8.2
2019-Oct-06 21:30N 52°08' W 128°08'611.9
2019-Oct-06 21:00N 52°05' W 128°00'612.5
2019-Oct-06 20:30N 51°59' W 127°56'816.2
2019-Oct-06 20:00N 51°51' W 127°56'816.5
2019-Oct-06 19:30N 51°43' W 127°55'816.4
2019-Oct-06 19:00N 51°35' W 127°52'816.3
2019-Oct-06 18:30N 51°27' W 127°51'815.8
2019-Oct-06 18:00N 51°19' W 127°52'815.9
2019-Oct-06 17:30N 51°11' W 127°51'816.4
2019-Oct-06 17:00N 51°05' W 127°42'916.0
2019-Oct-06 16:27N 50°58' W 127°32'2516.4
2019-Oct-06 14:54N 50°44' W 126°59'6416.1
2019-Oct-06 10:56N 50°20' W 125°26'717.4
2019-Oct-06 10:30N 50°13' W 125°23'917.3
2019-Oct-06 10:01N 50°05' W 125°17'816.8
2019-Oct-06 09:30N 49°58' W 125°10'816.3
2019-Oct-06 09:00N 49°53' W 125°01'816.5
2019-Oct-06 08:31N 49°47' W 124°52'816.3
2019-Oct-06 08:00N 49°41' W 124°43'1216.6
2019-Oct-06 07:17N 49°33' W 124°30'616.5
2019-Oct-06 06:54N 49°28' W 124°23'716.4
2019-Oct-06 06:30N 49°25' W 124°14'816.7
2019-Oct-06 06:00N 49°23' W 124°02'816.8
2019-Oct-06 05:30N 49°21' W 123°49'816.6
2019-Oct-06 05:00N 49°16' W 123°39'816.7
2019-Oct-06 04:30N 49°10' W 123°30'816.4
2019-Oct-06 04:01N 49°04' W 123°21'816.3
2019-Oct-06 03:30N 48°59' W 123°12'816.2
2019-Oct-06 03:00N 48°53' W 123°03'917.1
2019-Oct-06 02:30N 48°48' W 122°52'816.5
2019-Oct-06 02:00N 48°42' W 122°44'714.9
2019-Oct-06 01:31N 48°38' W 122°34'5 8.4
2019-Oct-06 00:52N 48°43' W 122°31'0 0.0
2019-Oct-06 00:28N 48°43' W 122°31'0 0.0
2019-Oct-05 23:58N 48°43' W 122°31'0 0.0
2019-Oct-05 23:28N 48°43' W 122°31'0 0.0
2019-Oct-05 22:58N 48°43' W 122°31'0 0.0
2019-Oct-05 22:25N 48°43' W 122°31'0 0.0
2019-Oct-05 21:58N 48°43' W 122°31'0 0.0
2019-Oct-05 21:28N 48°43' W 122°31'0 0.0
2019-Oct-05 20:58N 48°43' W 122°31'0 0.0
2019-Oct-05 20:25N 48°43' W 122°31'0 0.0
2019-Oct-05 19:58N 48°43' W 122°31'0 0.0
2019-Oct-05 19:28N 48°43' W 122°31'0 0.0
2019-Oct-05 18:58N 48°43' W 122°31'0 0.0
2019-Oct-05 18:25N 48°43' W 122°31'0 0.0
2019-Oct-05 17:55N 48°43' W 122°31'0 0.0
2019-Oct-05 17:28N 48°43' W 122°31'0 0.0
2019-Oct-05 16:58N 48°43' W 122°31'0 0.0
2019-Oct-05 16:22N 48°43' W 122°31'0 0.0
2019-Oct-05 15:58N 48°43' W 122°31'0 0.1
2019-Oct-05 14:41N 48°43' W 122°31'0 1.6
2019-Oct-05 14:27N 48°44' W 122°31'510.2
2019-Oct-05 13:58N 48°39' W 122°34'612.3
2019-Oct-05 13:30N 48°40' W 122°42'714.9
2019-Oct-05 13:00N 48°46' W 122°49'815.2
2019-Oct-05 12:31N 48°49' W 122°59'714.9
2019-Oct-05 12:01N 48°54' W 123°08'714.6
2019-Oct-05 11:30N 48°59' W 123°17'815.1
2019-Oct-05 11:01N 49°04' W 123°25'815.0
2019-Oct-05 10:30N 49°10' W 123°33'714.7
2019-Oct-05 10:01N 49°15' W 123°40'714.8
2019-Oct-05 09:30N 49°21' W 123°48'714.8
2019-Oct-05 09:01N 49°22' W 123°59'815.1
2019-Oct-05 08:30N 49°24' W 124°10'714.9
2019-Oct-05 08:00N 49°27' W 124°21'815.0
2019-Oct-05 07:29N 49°32' W 124°30'715.2
2019-Oct-05 07:01N 49°37' W 124°37'815.5
2019-Oct-05 06:30N 49°43' W 124°46'815.5
2019-Oct-05 06:00N 49°48' W 124°54'815.4
2019-Oct-05 05:31N 49°54' W 125°02'815.3
2019-Oct-05 05:00N 49°59' W 125°11'611.8
2019-Oct-05 04:30N 50°04' W 125°15'713.6
2019-Oct-05 04:00N 50°10' W 125°22'916.8
2019-Oct-05 03:30N 50°18' W 125°25'6514.9
2019-Oct-04 23:11N 50°44' W 126°58'2515.6
2019-Oct-04 21:33N 50°58' W 127°31'115.8
2019-Oct-04 21:30N 50°58' W 127°32'714.6
2019-Oct-04 20:59N 51°04' W 127°40'715.1
2019-Oct-04 20:31N 51°09' W 127°49'815.1
2019-Oct-04 20:00N 51°16' W 127°53'816.2
2019-Oct-04 19:31N 51°24' W 127°51'816.1
2019-Oct-04 19:00N 51°32' W 127°52'816.4
2019-Oct-04 18:31N 51°40' W 127°54'816.0
2019-Oct-04 18:01N 51°48' W 127°55'816.6
2019-Oct-04 17:30N 51°56' W 127°56'815.8
2019-Oct-04 17:00N 52°04' W 127°57'714.2
2019-Oct-04 16:30N 52°07' W 128°08'4 8.8
2019-Oct-04 16:00N 52°11' W 128°06'713.9
2019-Oct-04 15:30N 52°15' W 128°16'815.3
2019-Oct-04 15:00N 52°16' W 128°29'815.8
2019-Oct-04 14:30N 52°14' W 128°41'612.8
2019-Oct-04 14:01N 52°19' W 128°48'816.1
2019-Oct-04 13:30N 52°27' W 128°51'815.4
2019-Oct-04 13:00N 52°34' W 128°53'714.5
2019-Oct-04 12:30N 52°40' W 128°60'5515.0
2019-Oct-04 08:49N 53°25' W 129°55'515.3
2019-Oct-04 08:31N 53°28' W 130°00'1215.2
2019-Oct-04 07:43N 53°35' W 130°17'415.7
2019-Oct-04 07:26N 53°38' W 130°23'715.6
2019-Oct-04 07:01N 53°42' W 130°31'815.6
2019-Oct-04 06:30N 53°47' W 130°41'815.9
2019-Oct-04 06:00N 53°52' W 130°51'815.2
2019-Oct-04 05:30N 53°59' W 130°57'816.0
2019-Oct-04 05:00N 54°07' W 130°60'815.6
2019-Oct-04 04:31N 54°15' W 131°02'815.1
2019-Oct-04 04:00N 54°22' W 131°03'815.4
2019-Oct-04 03:30N 54°30' W 131°03'1016.2
2019-Oct-04 02:52N 54°40' W 131°01'616.0
2019-Oct-04 02:29N 54°46' W 131°03'250 8.4
2019-Oct-02 20:32N 58°13' W 135°20'216.4
2019-Oct-02 20:26N 58°13' W 135°22'716.6
2019-Oct-02 20:00N 58°16' W 135°35'817.0
2019-Oct-02 19:30N 58°19' W 135°50'918.2
2019-Oct-02 19:00N 58°19' W 136°07'11213.4
2019-Oct-02 10:38N 59°11' W 139°20'414.7
2019-Oct-02 10:24N 59°13' W 139°25'  
Track history (hours):
 
Tides and Currents Weather Stations Pressure Air Temp Water Temp Dewpoint Dewpoint Depression Visibility Wind Speed Wind Dir Waves Ship Positions

Kennicott

Owner: ALASKA, STATE OF, Anchorage, AK. More information available from US FCC via Universal Licensing System and Coast Guard Vessel Documentation Center.

Last reported at 2019-Oct-07 11:04 UTC. Time now 2019-Dec-15 11:03 UTC.
Position N 54°51' W 131°00'.
Warning: this ship's position is months out of date.

Type: Passenger vessel. MMSI: 368250000.

Date/timePositionNaut miles runAvg speedWind from/ knotsBaromVisibWave heightAir tempDewpointWater temp
2019-Oct-07 11:04N 54°51' W 131°00'315.3
2019-Oct-07 10:51N 54°48' W 130°58'515.1
2019-Oct-07 10:30N 54°44' W 130°53'815.1
2019-Oct-07 10:00N 54°39' W 130°42'815.5
2019-Oct-07 09:30N 54°32' W 130°39'815.7
2019-Oct-07 09:00N 54°24' W 130°37'815.3
2019-Oct-07 08:30N 54°16' W 130°33'815.6
2019-Oct-07 08:00N 54°10' W 130°26'713.1
2019-Oct-07 07:30N 54°05' W 130°18'815.6
2019-Oct-07 07:00N 53°58' W 130°12'714.3
2019-Oct-07 06:30N 53°53' W 130°04'815.5
2019-Oct-07 06:00N 53°47' W 129°56'815.6
2019-Oct-07 05:30N 53°41' W 129°47'7214.6
2019-Oct-07 00:33N 52°43' W 128°33'116.5
2019-Oct-07 00:30N 52°43' W 128°34'815.8
2019-Oct-07 00:00N 52°35' W 128°29'816.4
2019-Oct-06 23:30N 52°27' W 128°28'815.1
2019-Oct-06 23:00N 52°20' W 128°31'815.8
2019-Oct-06 22:30N 52°15' W 128°21'816.8
2019-Oct-06 22:00N 52°12' W 128°08'4 8.2
2019-Oct-06 21:30N 52°08' W 128°08'611.9
2019-Oct-06 21:00N 52°05' W 128°00'612.5
2019-Oct-06 20:30N 51°59' W 127°56'816.2
2019-Oct-06 20:00N 51°51' W 127°56'816.5
2019-Oct-06 19:30N 51°43' W 127°55'816.4
2019-Oct-06 19:00N 51°35' W 127°52'816.3
2019-Oct-06 18:30N 51°27' W 127°51'815.8
2019-Oct-06 18:00N 51°19' W 127°52'815.9
2019-Oct-06 17:30N 51°11' W 127°51'816.4
2019-Oct-06 17:00N 51°05' W 127°42'916.0
2019-Oct-06 16:27N 50°58' W 127°32'2516.4
2019-Oct-06 14:54N 50°44' W 126°59'6416.1
2019-Oct-06 10:56N 50°20' W 125°26'717.4
2019-Oct-06 10:30N 50°13' W 125°23'917.3
2019-Oct-06 10:01N 50°05' W 125°17'816.8
2019-Oct-06 09:30N 49°58' W 125°10'816.3
2019-Oct-06 09:00N 49°53' W 125°01'816.5
2019-Oct-06 08:31N 49°47' W 124°52'816.3
2019-Oct-06 08:00N 49°41' W 124°43'1216.6
2019-Oct-06 07:17N 49°33' W 124°30'616.5
2019-Oct-06 06:54N 49°28' W 124°23'716.4
2019-Oct-06 06:30N 49°25' W 124°14'816.7
2019-Oct-06 06:00N 49°23' W 124°02'816.8
2019-Oct-06 05:30N 49°21' W 123°49'816.6
2019-Oct-06 05:00N 49°16' W 123°39'816.7
2019-Oct-06 04:30N 49°10' W 123°30'816.4
2019-Oct-06 04:01N 49°04' W 123°21'816.3
2019-Oct-06 03:30N 48°59' W 123°12'816.2
2019-Oct-06 03:00N 48°53' W 123°03'917.1
2019-Oct-06 02:30N 48°48' W 122°52'816.5
2019-Oct-06 02:00N 48°42' W 122°44'714.9
2019-Oct-06 01:31N 48°38' W 122°34'5 8.4
2019-Oct-06 00:52N 48°43' W 122°31'0 0.0
2019-Oct-06 00:28N 48°43' W 122°31'0 0.0
2019-Oct-05 23:58N 48°43' W 122°31'0 0.0
2019-Oct-05 23:28N 48°43' W 122°31'0 0.0
2019-Oct-05 22:58N 48°43' W 122°31'0 0.0
2019-Oct-05 22:25N 48°43' W 122°31'0 0.0
2019-Oct-05 21:58N 48°43' W 122°31'0 0.0
2019-Oct-05 21:28N 48°43' W 122°31'0 0.0
2019-Oct-05 20:58N 48°43' W 122°31'0 0.0
2019-Oct-05 20:25N 48°43' W 122°31'0 0.0
2019-Oct-05 19:58N 48°43' W 122°31'0 0.0
2019-Oct-05 19:28N 48°43' W 122°31'0 0.0
2019-Oct-05 18:58N 48°43' W 122°31'0 0.0
2019-Oct-05 18:25N 48°43' W 122°31'0 0.0
2019-Oct-05 17:55N 48°43' W 122°31'0 0.0
2019-Oct-05 17:28N 48°43' W 122°31'0 0.0
2019-Oct-05 16:58N 48°43' W 122°31'0 0.0
2019-Oct-05 16:22N 48°43' W 122°31'0 0.0
2019-Oct-05 15:58N 48°43' W 122°31'0 0.1
2019-Oct-05 14:41N 48°43' W 122°31'0 1.6
2019-Oct-05 14:27N 48°44' W 122°31'510.2
2019-Oct-05 13:58N 48°39' W 122°34'612.3
2019-Oct-05 13:30N 48°40' W 122°42'714.9
2019-Oct-05 13:00N 48°46' W 122°49'815.2
2019-Oct-05 12:31N 48°49' W 122°59'714.9
2019-Oct-05 12:01N 48°54' W 123°08'714.6
2019-Oct-05 11:30N 48°59' W 123°17'815.1
2019-Oct-05 11:01N 49°04' W 123°25'815.0
2019-Oct-05 10:30N 49°10' W 123°33'714.7
2019-Oct-05 10:01N 49°15' W 123°40'714.8
2019-Oct-05 09:30N 49°21' W 123°48'714.8
2019-Oct-05 09:01N 49°22' W 123°59'815.1
2019-Oct-05 08:30N 49°24' W 124°10'714.9
2019-Oct-05 08:00N 49°27' W 124°21'815.0
2019-Oct-05 07:29N 49°32' W 124°30'715.2
2019-Oct-05 07:01N 49°37' W 124°37'815.5
2019-Oct-05 06:30N 49°43' W 124°46'815.5
2019-Oct-05 06:00N 49°48' W 124°54'815.4
2019-Oct-05 05:31N 49°54' W 125°02'815.3
2019-Oct-05 05:00N 49°59' W 125°11'611.8
2019-Oct-05 04:30N 50°04' W 125°15'713.6
2019-Oct-05 04:00N 50°10' W 125°22'916.8
2019-Oct-05 03:30N 50°18' W 125°25'6514.9
2019-Oct-04 23:11N 50°44' W 126°58'2515.6
2019-Oct-04 21:33N 50°58' W 127°31'115.8
2019-Oct-04 21:30N 50°58' W 127°32'714.6
2019-Oct-04 20:59N 51°04' W 127°40'715.1
2019-Oct-04 20:31N 51°09' W 127°49'815.1
2019-Oct-04 20:00N 51°16' W 127°53'816.2
2019-Oct-04 19:31N 51°24' W 127°51'816.1
2019-Oct-04 19:00N 51°32' W 127°52'816.4
2019-Oct-04 18:31N 51°40' W 127°54'816.0
2019-Oct-04 18:01N 51°48' W 127°55'816.6
2019-Oct-04 17:30N 51°56' W 127°56'815.8
2019-Oct-04 17:00N 52°04' W 127°57'714.2
2019-Oct-04 16:30N 52°07' W 128°08'4 8.8
2019-Oct-04 16:00N 52°11' W 128°06'713.9
2019-Oct-04 15:30N 52°15' W 128°16'815.3
2019-Oct-04 15:00N 52°16' W 128°29'815.8
2019-Oct-04 14:30N 52°14' W 128°41'612.8
2019-Oct-04 14:01N 52°19' W 128°48'816.1
2019-Oct-04 13:30N 52°27' W 128°51'815.4
2019-Oct-04 13:00N 52°34' W 128°53'714.5
2019-Oct-04 12:30N 52°40' W 128°60'5515.0
2019-Oct-04 08:49N 53°25' W 129°55'515.3
2019-Oct-04 08:31N 53°28' W 130°00'1215.2
2019-Oct-04 07:43N 53°35' W 130°17'415.7
2019-Oct-04 07:26N 53°38' W 130°23'715.6
2019-Oct-04 07:01N 53°42' W 130°31'815.6
2019-Oct-04 06:30N 53°47' W 130°41'815.9
2019-Oct-04 06:00N 53°52' W 130°51'815.2
2019-Oct-04 05:30N 53°59' W 130°57'816.0
2019-Oct-04 05:00N 54°07' W 130°60'815.6
2019-Oct-04 04:31N 54°15' W 131°02'815.1
2019-Oct-04 04:00N 54°22' W 131°03'815.4
2019-Oct-04 03:30N 54°30' W 131°03'1016.2
2019-Oct-04 02:52N 54°40' W 131°01'616.0
2019-Oct-04 02:29N 54°46' W 131°03'250 8.4
2019-Oct-02 20:32N 58°13' W 135°20'216.4
2019-Oct-02 20:26N 58°13' W 135°22'716.6
2019-Oct-02 20:00N 58°16' W 135°35'817.0
2019-Oct-02 19:30N 58°19' W 135°50'918.2
2019-Oct-02 19:00N 58°19' W 136°07'11213.4
2019-Oct-02 10:38N 59°11' W 139°20'414.7
2019-Oct-02 10:24N 59°13' W 139°25'  

Dump ship's entire track history